sim
Sign-in with your pilot id or email,
or register
Callsign
Passwort

Schedule Details

Flight Number: DLH2147 (1)
Departure: Stuttgart Airport (EDDS) at 12:30
Arrival: Munich Airport (EDDM) at 13:15
Route: Lufthansa Passenger Schedule. Enter filed route here before submitting Pirep.

Weather Information
Getting current METAR information for EDDS 250950Z 21006KT 140V300 9999 FEW025 11/05 Q1002 NOSIG
Getting current METAR information for EDDM 250950Z 27007KT 230V290 9999 -RA FEW011 SCT020 10/08 Q1003 NOSIG

Schedule Frequency

Route Map